Time;durP1;ratioP1;P1;durP2;ratioP2;P2;SDS_P1;SDS_P2;PMS_P1;PMS_P2;Temp;Humidity;BMP_temperature;BMP_pressure;BME280_temperature;BME280_humidity;BME280_pressure;Samples;Min_cycle;Max_cycle;Signal;HPM_P1;HPM_P2
2022/06/26 00:01:29;;;;;;;3.73;1.63;;;19.00;80.90;;;;;;4847156;29;20199;-64
2022/06/26 00:03:55;;;;;;;3.27;1.80;;;18.90;80.90;;;;;;4845017;29;20230;-64
2022/06/26 00:06:20;;;;;;;1.80;1.60;;;19.00;81.30;;;;;;4871318;29;20263;-64
2022/06/26 00:08:46;;;;;;;1.57;1.40;;;18.90;81.20;;;;;;4870337;29;20265;-64
2022/06/26 00:11:12;;;;;;;3.53;1.50;;;18.80;81.10;;;;;;4856459;29;20187;-64
2022/06/26 00:13:37;;;;;;;1.50;1.40;;;18.80;81.40;;;;;;4869975;29;20199;-64
2022/06/26 00:16:03;;;;;;;1.03;0.93;;;18.80;81.20;;;;;;4854962;29;20200;-64
2022/06/26 00:18:29;;;;;;;2.40;1.10;;;18.80;81.10;;;;;;4865532;29;20229;-64
2022/06/26 00:20:55;;;;;;;2.10;1.30;;;18.80;81.00;;;;;;4864072;29;20275;-64
2022/06/26 00:23:20;;;;;;;3.23;1.20;;;18.70;81.30;;;;;;4854536;29;20226;-64
2022/06/26 00:25:46;;;;;;;1.67;1.10;;;18.70;81.00;;;;;;4872976;29;20192;-64
2022/06/26 00:28:12;;;;;;;1.07;0.97;;;18.70;81.00;;;;;;4854294;29;20254;-64
2022/06/26 00:30:37;;;;;;;2.80;1.47;;;18.70;81.30;;;;;;4869235;29;20196;-64
2022/06/26 00:33:03;;;;;;;2.37;1.20;;;18.70;81.20;;;;;;4869716;29;20192;-64
2022/06/26 00:35:29;;;;;;;2.80;1.33;;;18.70;81.40;;;;;;4888503;29;20200;-64
2022/06/26 00:37:55;;;;;;;1.10;1.00;;;18.60;81.60;;;;;;4870062;29;20286;-64
2022/06/26 00:40:21;;;;;;;1.63;1.00;;;18.60;81.30;;;;;;4853213;29;20199;-64
2022/06/26 00:42:47;;;;;;;2.50;1.20;;;18.60;81.70;;;;;;4883396;29;20248;-64
2022/06/26 00:45:13;;;;;;;1.37;1.27;;;18.50;81.40;;;;;;4869762;29;20290;-63
2022/06/26 00:47:39;;;;;;;3.63;1.20;;;18.50;81.60;;;;;;4850843;29;20189;-64
2022/06/26 00:50:07;;;;;;;1.50;1.00;;;18.50;81.90;;;;;;4853270;29;20271;-64
2022/06/26 00:52:34;;;;;;;2.93;1.40;;;18.40;81.80;;;;;;4866401;29;20201;-64
2022/06/26 00:55:00;;;;;;;2.27;1.50;;;18.40;81.80;;;;;;4864028;29;20192;-64
2022/06/26 00:57:26;;;;;;;1.60;0.90;;;18.30;81.90;;;;;;4874228;29;20212;-64
2022/06/26 00:59:52;;;;;;;1.70;1.20;;;18.30;82.20;;;;;;4846547;29;20287;-64
2022/06/26 01:02:17;;;;;;;1.40;1.27;;;18.30;82.40;;;;;;4865798;29;20192;-64
2022/06/26 01:04:43;;;;;;;1.37;1.27;;;18.30;82.30;;;;;;4868513;29;20212;-64
2022/06/26 01:07:10;;;;;;;2.00;0.90;;;18.30;82.30;;;;;;4881736;29;20192;-64
2022/06/26 01:09:36;;;;;;;1.97;1.20;;;18.30;82.10;;;;;;4869041;29;20196;-64
2022/06/26 01:12:02;;;;;;;1.47;1.20;;;18.30;82.10;;;;;;4868395;29;20217;-64
2022/06/26 01:14:30;;;;;;;2.50;0.90;;;18.30;82.30;;;;;;4875966;29;20215;-64
2022/06/26 01:16:55;;;;;;;1.20;1.10;;;18.20;82.50;;;;;;4885634;29;20196;-64
2022/06/26 01:19:21;;;;;;;0.93;0.93;;;18.20;82.90;;;;;;4864829;29;20199;-64
2022/06/26 01:21:47;;;;;;;3.10;1.10;;;18.20;82.40;;;;;;4850793;29;20204;-64
2022/06/26 01:24:14;;;;;;;1.73;1.33;;;18.20;82.20;;;;;;4867485;29;20228;-64
2022/06/26 01:26:40;;;;;;;1.57;1.33;;;18.10;82.50;;;;;;4864960;29;20240;-64
2022/06/26 01:29:06;;;;;;;2.23;1.00;;;18.10;82.20;;;;;;4864868;29;20216;-64
2022/06/26 01:31:36;;;;;;;2.27;1.30;;;18.10;82.30;;;;;;4861264;29;20229;-64
2022/06/26 01:34:04;;;;;;;4.50;1.10;;;18.10;82.50;;;;;;4881339;29;20192;-64
2022/06/26 01:36:30;;;;;;;1.97;0.97;;;18.00;82.40;;;;;;4883916;29;20191;-63
2022/06/26 01:38:55;;;;;;;3.53;1.53;;;18.00;82.40;;;;;;4874034;29;20206;-64
2022/06/26 01:41:21;;;;;;;1.37;1.23;;;17.90;82.60;;;;;;4883957;29;20196;-64
2022/06/26 01:43:47;;;;;;;2.57;1.30;;;17.90;82.70;;;;;;4861312;29;20219;-64
2022/06/26 01:46:12;;;;;;;1.80;1.43;;;17.90;82.90;;;;;;4868024;29;20189;-64
2022/06/26 01:48:39;;;;;;;1.20;1.10;;;17.80;82.80;;;;;;4867928;29;20208;-64
2022/06/26 01:51:07;;;;;;;2.27;1.20;;;17.80;82.90;;;;;;4884535;29;20200;-64
2022/06/26 01:53:34;;;;;;;2.17;1.30;;;17.90;83.00;;;;;;4883797;29;20196;-64
2022/06/26 01:56:00;;;;;;;1.90;1.10;;;17.80;83.20;;;;;;4870692;29;20196;-64
2022/06/26 01:58:26;;;;;;;1.70;1.23;;;17.80;83.30;;;;;;4878151;29;20289;-64
2022/06/26 02:00:53;;;;;;;2.80;1.17;;;17.80;82.80;;;;;;4881022;29;20295;-64
2022/06/26 02:03:20;;;;;;;3.83;1.20;;;17.80;83.10;;;;;;4902596;29;20278;-64
2022/06/26 02:05:46;;;;;;;1.03;1.00;;;17.80;82.90;;;;;;4882839;29;20190;-64
2022/06/26 02:08:12;;;;;;;2.60;1.37;;;17.70;83.30;;;;;;4886508;29;20220;-64
2022/06/26 02:13:37;;;;;;;2.47;1.23;;;17.70;83.30;;;;;;4887162;29;20217;-64
2022/06/26 02:16:16;;;;;;;2.37;1.27;;;17.70;83.50;;;;;;4864790;29;20228;-64
2022/06/26 02:18:46;;;;;;;1.53;1.43;;;17.70;83.60;;;;;;4884355;29;20286;-64
2022/06/26 02:21:14;;;;;;;2.40;1.20;;;17.70;83.60;;;;;;4900016;29;20229;-64
2022/06/26 02:23:41;;;;;;;1.70;1.33;;;17.60;83.30;;;;;;4882377;29;20223;-64
2022/06/26 02:26:07;;;;;;;1.90;1.40;;;17.60;83.50;;;;;;4874242;29;20246;-64
2022/06/26 02:28:34;;;;;;;2.60;1.20;;;17.60;83.70;;;;;;4882192;29;20198;-65
2022/06/26 02:31:00;;;;;;;1.73;1.20;;;17.50;83.60;;;;;;4864611;29;20201;-64
2022/06/26 02:33:26;;;;;;;3.23;1.17;;;17.50;83.60;;;;;;4882792;29;20276;-64
2022/06/26 02:35:54;;;;;;;1.57;1.40;;;17.50;83.60;;;;;;4874220;29;20202;-64
2022/06/26 02:38:20;;;;;;;2.70;1.20;;;17.40;84.00;;;;;;4879803;29;20195;-64
2022/06/26 02:40:46;;;;;;;1.80;1.13;;;17.40;83.90;;;;;;4899148;29;20308;-65
2022/06/26 02:43:12;;;;;;;1.70;1.20;;;17.50;84.10;;;;;;4857926;29;20216;-64
2022/06/26 02:45:38;;;;;;;1.97;1.30;;;17.40;84.00;;;;;;4862491;29;20201;-64
2022/06/26 02:48:03;;;;;;;2.33;1.20;;;17.50;83.80;;;;;;4848924;29;20192;-64
2022/06/26 02:50:29;;;;;;;3.13;1.40;;;17.40;84.10;;;;;;4866105;29;20222;-64
2022/06/26 02:52:55;;;;;;;1.40;1.30;;;17.40;84.10;;;;;;4847606;29;20195;-64
2022/06/26 02:55:20;;;;;;;4.23;1.30;;;17.40;83.80;;;;;;4867326;29;20199;-63
2022/06/26 02:57:46;;;;;;;4.43;1.23;;;17.40;83.90;;;;;;4855876;29;20252;-64
2022/06/26 03:00:14;;;;;;;3.60;1.50;;;17.30;83.80;;;;;;4863420;29;20192;-64
2022/06/26 03:02:40;;;;;;;4.60;1.60;;;17.30;83.80;;;;;;4881896;29;20202;-64
2022/06/26 03:05:06;;;;;;;1.30;1.20;;;17.30;84.00;;;;;;4881860;29;20207;-64
2022/06/26 03:07:32;;;;;;;2.63;1.70;;;17.30;84.10;;;;;;4865813;29;20249;-64
2022/06/26 03:09:58;;;;;;;2.47;1.40;;;17.30;84.00;;;;;;4888048;29;20196;-64
2022/06/26 03:12:23;;;;;;;1.33;1.23;;;17.30;84.10;;;;;;4865029;29;20196;-64
2022/06/26 03:14:49;;;;;;;2.50;1.30;;;17.30;84.00;;;;;;4844351;29;20229;-64
2022/06/26 03:17:15;;;;;;;2.20;1.63;;;17.30;84.00;;;;;;4848521;29;20206;-64
2022/06/26 03:19:41;;;;;;;2.13;1.10;;;17.30;84.00;;;;;;4863422;29;20197;-64
2022/06/26 03:22:07;;;;;;;1.47;1.37;;;17.30;84.30;;;;;;4882311;29;20233;-64
2022/06/26 03:24:33;;;;;;;3.73;1.60;;;17.30;84.10;;;;;;4890159;29;20208;-64
2022/06/26 03:26:59;;;;;;;1.40;1.20;;;17.30;84.30;;;;;;4866079;29;20243;-64
2022/06/26 03:29:25;;;;;;;1.70;1.40;;;17.30;84.00;;;;;;4864593;29;20201;-64
2022/06/26 03:31:51;;;;;;;1.30;1.20;;;17.20;84.30;;;;;;4866508;29;20231;-64
2022/06/26 03:34:17;;;;;;;2.23;1.40;;;17.20;84.40;;;;;;4867063;29;20339;-64
2022/06/26 03:36:42;;;;;;;1.17;1.07;;;17.20;84.50;;;;;;4881618;29;20279;-64
2022/06/26 03:39:08;;;;;;;2.33;1.37;;;17.20;84.40;;;;;;4849568;29;20192;-64
2022/06/26 03:41:34;;;;;;;1.87;1.43;;;17.20;84.40;;;;;;4864736;29;20200;-64
2022/06/26 03:44:00;;;;;;;1.97;1.50;;;17.20;84.50;;;;;;4870388;29;20218;-64
2022/06/26 03:46:26;;;;;;;2.47;1.67;;;17.20;84.30;;;;;;4869461;29;20191;-64
2022/06/26 03:48:52;;;;;;;6.17;1.40;;;17.20;84.60;;;;;;4870058;29;20191;-64
2022/06/26 03:51:17;;;;;;;3.30;1.40;;;17.10;84.50;;;;;;4867345;29;20189;-64
2022/06/26 03:53:43;;;;;;;2.10;1.43;;;17.10;84.70;;;;;;4847735;29;20201;-64
2022/06/26 03:56:09;;;;;;;2.30;1.40;;;17.10;84.80;;;;;;4866789;29;20200;-64
2022/06/26 03:58:34;;;;;;;1.93;1.40;;;17.20;84.90;;;;;;4870304;29;20228;-64
2022/06/26 04:01:00;;;;;;;2.07;1.67;;;17.10;84.90;;;;;;4889714;29;20250;-64
2022/06/26 04:03:26;;;;;;;2.33;1.97;;;17.10;84.60;;;;;;4887677;29;20243;-64
2022/06/26 04:05:52;;;;;;;2.60;1.60;;;17.10;85.10;;;;;;4887258;29;20218;-63
2022/06/26 04:08:19;;;;;;;2.47;1.37;;;17.20;85.20;;;;;;4838212;29;20190;-63
2022/06/26 04:10:45;;;;;;;1.40;1.30;;;17.10;85.10;;;;;;4869848;29;20191;-64
2022/06/26 04:13:12;;;;;;;2.10;1.50;;;17.10;84.90;;;;;;4854538;29;20219;-64
2022/06/26 04:15:39;;;;;;;3.10;1.73;;;17.10;85.10;;;;;;4866779;29;20196;-65
2022/06/26 04:18:05;;;;;;;2.50;1.37;;;17.20;85.00;;;;;;4848022;29;20200;-66
2022/06/26 04:20:31;;;;;;;2.60;1.40;;;17.20;85.20;;;;;;4867454;29;20207;-64
2022/06/26 04:22:58;;;;;;;4.10;1.60;;;17.20;84.80;;;;;;4843451;29;20188;-63
2022/06/26 04:25:25;;;;;;;1.97;1.40;;;17.30;84.90;;;;;;4854536;29;20192;-63
2022/06/26 04:27:51;;;;;;;1.57;1.20;;;17.30;84.70;;;;;;4882925;29;20232;-64
2022/06/26 04:30:17;;;;;;;3.77;1.63;;;17.30;84.80;;;;;;4869956;29;20279;-64
2022/06/26 04:32:43;;;;;;;1.30;1.20;;;17.30;85.00;;;;;;4856639;29;20193;-63
2022/06/26 04:35:09;;;;;;;1.00;1.00;;;17.30;85.00;;;;;;4862013;29;20201;-63
2022/06/26 04:37:37;;;;;;;1.30;1.20;;;17.30;85.10;;;;;;4863440;29;20201;-64
2022/06/26 04:40:07;;;;;;;2.53;1.80;;;17.30;85.10;;;;;;4868978;29;20263;-64
2022/06/26 04:42:33;;;;;;;1.57;1.20;;;17.30;85.20;;;;;;4871164;29;20199;-66
2022/06/26 04:44:58;;;;;;;1.87;1.20;;;17.30;85.20;;;;;;4852265;29;20215;-64
2022/06/26 04:47:24;;;;;;;2.93;1.60;;;17.30;85.30;;;;;;4860151;29;20198;-64
2022/06/26 04:49:50;;;;;;;2.13;1.40;;;17.30;85.30;;;;;;4840719;29;20199;-64
2022/06/26 04:52:16;;;;;;;1.70;1.50;;;17.30;85.30;;;;;;4872711;29;20189;-64
2022/06/26 04:54:43;;;;;;;2.47;1.50;;;17.30;85.40;;;;;;4864712;29;20299;-63
2022/06/26 04:57:09;;;;;;;2.43;1.50;;;17.30;85.50;;;;;;4859492;29;20207;-65
2022/06/26 04:59:34;;;;;;;1.50;1.40;;;17.30;85.50;;;;;;4883297;29;20200;-64
2022/06/26 05:02:00;;;;;;;3.30;1.80;;;17.30;85.60;;;;;;4868277;29;20210;-64
2022/06/26 05:04:26;;;;;;;3.87;1.63;;;17.30;85.60;;;;;;4881728;29;20220;-63
2022/06/26 05:06:52;;;;;;;1.70;1.60;;;17.40;85.70;;;;;;4856143;29;20205;-64
2022/06/26 05:09:17;;;;;;;3.03;1.40;;;17.40;85.40;;;;;;4853445;29;20200;-64
2022/06/26 05:11:44;;;;;;;1.43;1.30;;;17.40;85.40;;;;;;4868543;29;20187;-63
2022/06/26 05:14:10;;;;;;;4.07;1.67;;;17.40;85.70;;;;;;4853341;29;20216;-64
2022/06/26 05:16:36;;;;;;;1.70;1.40;;;17.50;85.80;;;;;;4867920;29;20193;-64
2022/06/26 05:19:02;;;;;;;2.13;1.40;;;17.40;85.80;;;;;;4852753;29;20199;-63
2022/06/26 05:21:28;;;;;;;2.87;1.47;;;17.50;85.80;;;;;;4864887;29;20224;-64
2022/06/26 05:23:55;;;;;;;1.50;1.40;;;17.50;85.70;;;;;;4868389;29;20208;-63
2022/06/26 05:26:22;;;;;;;2.23;1.67;;;17.50;85.70;;;;;;4853036;29;20255;-63
2022/06/26 05:28:48;;;;;;;3.70;1.60;;;17.50;85.60;;;;;;4867954;29;20263;-62
2022/06/26 05:31:14;;;;;;;2.83;1.80;;;17.50;85.70;;;;;;4863695;29;20192;-63
2022/06/26 05:33:40;;;;;;;1.33;1.23;;;17.60;85.70;;;;;;4862953;29;20192;-62
2022/06/26 05:36:08;;;;;;;2.13;1.77;;;17.60;85.80;;;;;;4853140;29;20286;-62
2022/06/26 05:38:35;;;;;;;3.73;1.80;;;17.60;85.80;;;;;;4868053;29;20286;-64
2022/06/26 05:41:01;;;;;;;1.53;1.43;;;17.70;85.90;;;;;;4867395;29;20279;-63
2022/06/26 05:43:27;;;;;;;2.63;1.70;;;17.70;86.00;;;;;;4861203;29;20212;-63
2022/06/26 05:45:53;;;;;;;1.73;1.63;;;17.70;86.00;;;;;;4860512;29;20328;-62
2022/06/26 05:48:19;;;;;;;3.63;1.80;;;17.70;86.10;;;;;;4867905;29;20200;-63
2022/06/26 05:50:45;;;;;;;1.87;1.60;;;17.80;85.80;;;;;;4852364;29;20192;-62
2022/06/26 05:53:11;;;;;;;5.10;1.77;;;17.80;85.70;;;;;;4883629;29;20203;-64
2022/06/26 05:55:38;;;;;;;1.87;1.40;;;17.80;85.70;;;;;;4860785;29;20196;-63
2022/06/26 05:58:05;;;;;;;1.90;1.77;;;17.90;85.80;;;;;;4881190;29;20184;-62
2022/06/26 06:00:32;;;;;;;2.63;1.87;;;17.90;86.00;;;;;;4874563;29;20259;-62
2022/06/26 06:02:57;;;;;;;1.97;1.80;;;17.90;86.00;;;;;;4861724;29;20227;-63
2022/06/26 06:05:25;;;;;;;1.83;1.63;;;18.00;86.10;;;;;;4848458;29;20224;-64
2022/06/26 06:07:52;;;;;;;2.00;1.90;;;18.00;85.90;;;;;;4862082;29;20203;-62
2022/06/26 06:10:21;;;;;;;2.40;1.70;;;18.00;86.00;;;;;;4898360;29;20239;-63
2022/06/26 06:12:47;;;;;;;3.73;2.00;;;18.00;86.20;;;;;;4882444;29;20184;-63
2022/06/26 06:15:13;;;;;;;2.90;1.60;;;18.00;86.20;;;;;;4877279;29;20191;-63
2022/06/26 06:17:42;;;;;;;3.03;1.73;;;18.10;86.10;;;;;;4882932;29;20207;-63
2022/06/26 06:20:10;;;;;;;2.10;1.90;;;18.20;86.30;;;;;;4877362;29;20243;-62
2022/06/26 06:22:36;;;;;;;2.00;1.80;;;18.20;85.60;;;;;;4883721;29;20202;-63
2022/06/26 06:25:02;;;;;;;3.63;1.53;;;18.20;85.40;;;;;;4863912;29;20213;-62
2022/06/26 06:27:28;;;;;;;5.47;2.10;;;18.20;85.70;;;;;;4843899;29;20243;-65
2022/06/26 06:29:53;;;;;;;1.50;1.40;;;18.30;86.10;;;;;;4851219;29;20196;-64
2022/06/26 06:32:19;;;;;;;1.57;1.47;;;18.30;85.60;;;;;;4848171;29;20234;-64
2022/06/26 06:34:45;;;;;;;2.77;1.50;;;18.30;85.30;;;;;;4859508;29;20222;-64
2022/06/26 06:37:10;;;;;;;3.37;1.97;;;18.40;84.90;;;;;;4851917;29;20202;-64
2022/06/26 06:39:36;;;;;;;3.60;1.60;;;18.50;84.10;;;;;;4865597;29;20203;-64
2022/06/26 06:42:02;;;;;;;1.63;1.50;;;18.50;84.10;;;;;;4866373;29;20194;-64
2022/06/26 06:44:28;;;;;;;1.87;1.70;;;18.60;83.70;;;;;;4858026;29;20219;-64
2022/06/26 06:46:54;;;;;;;2.40;1.70;;;18.60;84.20;;;;;;4857973;29;20192;-64
2022/06/26 06:49:20;;;;;;;1.63;1.53;;;18.60;84.50;;;;;;4848105;29;20197;-65
2022/06/26 06:51:45;;;;;;;1.30;1.20;;;18.70;84.50;;;;;;4860443;29;20192;-64
2022/06/26 06:54:11;;;;;;;1.20;1.10;;;18.70;80.20;;;;;;4882729;29;20196;-63
2022/06/26 06:56:37;;;;;;;1.40;1.30;;;18.80;81.30;;;;;;4848983;29;20341;-62
2022/06/26 06:59:03;;;;;;;3.90;1.40;;;18.80;80.20;;;;;;4870478;29;20278;-61
2022/06/26 07:01:29;;;;;;;1.00;1.00;;;18.90;80.90;;;;;;4867123;29;20196;-62
2022/06/26 07:03:55;;;;;;;1.20;1.00;;;18.90;80.90;;;;;;4880207;29;20218;-62
2022/06/26 07:06:21;;;;;;;1.70;1.20;;;19.00;81.00;;;;;;4864874;29;20204;-62
2022/06/26 07:08:47;;;;;;;1.40;1.30;;;19.00;82.10;;;;;;4866974;29;20223;-64
2022/06/26 07:11:13;;;;;;;1.33;1.20;;;19.00;83.30;;;;;;4898313;29;20180;-64
2022/06/26 07:13:39;;;;;;;1.20;1.10;;;19.00;83.60;;;;;;4866771;29;20217;-64
2022/06/26 07:16:04;;;;;;;3.27;1.30;;;19.00;82.90;;;;;;4861805;29;20325;-63
2022/06/26 07:18:30;;;;;;;1.53;1.30;;;19.00;81.40;;;;;;4859198;29;20196;-63
2022/06/26 07:20:56;;;;;;;1.87;1.20;;;19.10;82.20;;;;;;4855126;29;20249;-64
2022/06/26 07:23:21;;;;;;;1.30;1.10;;;19.20;82.30;;;;;;4876303;29;20207;-64
2022/06/26 07:25:47;;;;;;;1.60;1.20;;;19.40;78.40;;;;;;4879506;29;20195;-63
2022/06/26 07:28:13;;;;;;;1.93;1.70;;;19.50;78.40;;;;;;4849378;29;20192;-64
2022/06/26 07:30:38;;;;;;;1.67;1.50;;;19.60;78.40;;;;;;4859844;29;20188;-64
2022/06/26 07:34:12;;;;;;;1.57;1.27;;;19.70;76.40;;;;;;4856878;29;20192;-64
2022/06/26 07:35:51;;;;;;;1.50;1.30;;;19.80;76.10;;;;;;4874877;29;20197;-64
2022/06/26 07:38:16;;;;;;;1.23;1.13;;;19.80;77.40;;;;;;4873521;29;20218;-64
2022/06/26 07:40:42;;;;;;;1.70;1.30;;;19.80;76.70;;;;;;4861968;29;20188;-64
2022/06/26 07:43:08;;;;;;;2.63;1.30;;;20.00;76.40;;;;;;4848973;29;20188;-64
2022/06/26 07:45:33;;;;;;;1.07;1.00;;;20.00;77.50;;;;;;4865036;29;20200;-64
2022/06/26 07:47:59;;;;;;;1.87;1.20;;;20.00;77.00;;;;;;4871001;29;20179;-64
2022/06/26 07:50:25;;;;;;;1.43;1.33;;;20.10;76.60;;;;;;4896120;29;20184;-64
2022/06/26 07:52:50;;;;;;;1.63;1.20;;;20.30;76.20;;;;;;4880624;29;20201;-64
2022/06/26 07:55:17;;;;;;;2.83;1.30;;;20.30;77.70;;;;;;4865611;29;20200;-65
2022/06/26 07:57:43;;;;;;;1.40;1.30;;;20.30;75.50;;;;;;4880277;29;20192;-64
2022/06/26 08:00:10;;;;;;;2.07;1.60;;;20.60;75.10;;;;;;4857378;29;20195;-64
2022/06/26 08:02:36;;;;;;;1.83;1.10;;;20.60;74.10;;;;;;4857008;29;20194;-64
2022/06/26 08:05:01;;;;;;;1.53;1.30;;;20.70;73.90;;;;;;4847341;29;20216;-64
2022/06/26 08:07:27;;;;;;;1.00;1.00;;;20.90;73.40;;;;;;4846376;29;20196;-64
2022/06/26 08:09:52;;;;;;;1.40;1.13;;;20.90;74.20;;;;;;4861108;29;20199;-64
2022/06/26 08:12:18;;;;;;;2.17;1.23;;;21.00;73.40;;;;;;4842362;29;20197;-64
2022/06/26 08:14:44;;;;;;;1.40;1.30;;;21.10;73.10;;;;;;4876356;29;20208;-64
2022/06/26 08:17:10;;;;;;;1.40;1.23;;;21.20;73.80;;;;;;4878572;29;20202;-64
2022/06/26 08:19:35;;;;;;;1.17;1.10;;;21.00;72.90;;;;;;4857608;29;20203;-64
2022/06/26 08:22:01;;;;;;;3.03;1.03;;;21.00;73.70;;;;;;4863208;29;20195;-64
2022/06/26 08:24:27;;;;;;;1.33;1.10;;;21.10;73.60;;;;;;4848180;29;20223;-64
2022/06/26 08:26:54;;;;;;;1.83;1.20;;;21.20;74.80;;;;;;4850927;29;20325;-64
2022/06/26 08:29:19;;;;;;;3.77;1.60;;;21.20;74.20;;;;;;4865680;29;20209;-64
2022/06/26 08:31:45;;;;;;;1.33;1.23;;;21.40;72.20;;;;;;4877917;29;20185;-64
2022/06/26 08:34:11;;;;;;;3.63;1.60;;;21.50;71.70;;;;;;4893744;29;20192;-64
2022/06/26 08:36:38;;;;;;;1.30;1.20;;;21.50;73.00;;;;;;4859602;29;20199;-64
2022/06/26 08:39:05;;;;;;;1.90;1.60;;;21.50;71.30;;;;;;4880734;29;20184;-64
2022/06/26 08:41:39;;;;;;;1.37;1.27;;;21.60;71.90;;;;;;4863986;29;20196;-64
2022/06/26 08:44:06;;;;;;;3.03;1.43;;;21.70;70.20;;;;;;4897781;29;20239;-64
2022/06/26 08:46:37;;;;;;;1.33;1.23;;;21.80;70.90;;;;;;4881993;29;20198;-64
2022/06/26 08:49:12;;;;;;;1.37;1.10;;;21.80;72.70;;;;;;4867522;29;20191;-64
2022/06/26 08:51:46;;;;;;;2.50;1.30;;;22.00;71.80;;;;;;4881983;29;20184;-64
2022/06/26 08:54:13;;;;;;;1.90;1.63;;;22.10;70.20;;;;;;4882022;29;20273;-64
2022/06/26 08:56:41;;;;;;;1.30;1.20;;;22.20;70.20;;;;;;4868318;29;20191;-64
2022/06/26 08:59:08;;;;;;;1.40;1.30;;;22.20;70.20;;;;;;4883485;29;20196;-64
2022/06/26 09:01:35;;;;;;;4.13;1.63;;;22.20;71.50;;;;;;4883634;29;20199;-64
2022/06/26 09:04:02;;;;;;;1.50;1.40;;;22.40;70.40;;;;;;4865429;29;20315;-64
2022/06/26 09:06:28;;;;;;;1.53;1.20;;;22.50;68.80;;;;;;4898376;29;20181;-64
2022/06/26 09:08:53;;;;;;;1.80;1.53;;;22.60;69.30;;;;;;4879701;29;20188;-64
2022/06/26 09:11:19;;;;;;;1.70;1.20;;;22.70;69.50;;;;;;4862151;29;20218;-64
2022/06/26 09:13:46;;;;;;;1.10;1.00;;;22.90;67.90;;;;;;4880764;29;20286;-64
2022/06/26 09:16:13;;;;;;;5.00;1.60;;;22.80;68.50;;;;;;4875797;29;20184;-64
2022/06/26 09:18:42;;;;;;;2.00;1.60;;;22.80;68.70;;;;;;4898334;29;20251;-64
2022/06/26 09:21:10;;;;;;;2.00;1.40;;;23.00;68.20;;;;;;4866762;29;20265;-64
2022/06/26 09:23:37;;;;;;;1.97;1.70;;;23.00;69.20;;;;;;4894454;29;20279;-64
2022/06/26 09:26:04;;;;;;;2.00;1.43;;;23.20;68.80;;;;;;4851342;29;20249;-64
2022/06/26 09:28:30;;;;;;;1.60;1.47;;;23.20;68.80;;;;;;4898612;29;20270;-64
2022/06/26 09:31:00;;;;;;;2.77;1.50;;;23.20;69.20;;;;;;4848865;29;20291;-64
2022/06/26 09:33:39;;;;;;;1.63;1.53;;;23.20;68.60;;;;;;4898941;29;20196;-64
2022/06/26 09:36:05;;;;;;;1.70;1.30;;;23.20;66.30;;;;;;4872349;29;20240;-64
2022/06/26 09:38:36;;;;;;;1.70;1.60;;;23.70;66.10;;;;;;4882726;29;20202;-64
2022/06/26 09:41:04;;;;;;;1.50;1.40;;;23.70;67.80;;;;;;4881132;29;20282;-64
2022/06/26 09:43:32;;;;;;;1.30;1.20;;;23.70;68.10;;;;;;4882034;29;20214;-64
2022/06/26 09:46:02;;;;;;;1.50;1.37;;;23.60;69.30;;;;;;4882521;29;20227;-64
2022/06/26 09:48:28;;;;;;;2.07;1.70;;;23.60;69.70;;;;;;4880610;29;20219;-64
2022/06/26 09:50:55;;;;;;;2.20;1.93;;;23.50;67.60;;;;;;4882495;29;20196;-64
2022/06/26 09:53:22;;;;;;;3.00;1.70;;;23.60;69.20;;;;;;4863352;29;20203;-64
2022/06/26 09:55:49;;;;;;;2.00;1.67;;;23.70;68.60;;;;;;4879996;29;20196;-64
2022/06/26 09:58:17;;;;;;;1.83;1.57;;;23.70;69.70;;;;;;4876756;29;20188;-64
2022/06/26 10:06:25;;;;;;;1.77;1.60;;;24.00;66.90;;;;;;4882798;29;20223;-64
2022/06/26 10:06:27;;;;;;;1.80;1.70;;;24.10;65.40;;;;;;4886186;29;20203;-64
2022/06/26 10:08:57;;;;;;;2.13;1.70;;;24.20;65.10;;;;;;4897838;29;20196;-64
2022/06/26 10:11:27;;;;;;;2.50;2.30;;;24.20;68.40;;;;;;4881616;29;20188;-64
2022/06/26 10:14:00;;;;;;;3.30;2.00;;;24.40;65.60;;;;;;4862801;29;20208;-64
2022/06/26 10:16:55;;;;;;;2.23;1.90;;;24.50;65.90;;;;;;4877372;29;20336;-64
2022/06/26 10:19:28;;;;;;;3.43;1.60;;;24.50;66.70;;;;;;4894709;29;20211;-64
2022/06/26 10:21:54;;;;;;;3.10;1.80;;;24.50;67.70;;;;;;4880425;29;20283;-64
2022/06/26 10:24:20;;;;;;;2.07;1.47;;;24.60;65.60;;;;;;4850960;29;20212;-64
2022/06/26 10:26:57;;;;;;;2.07;1.60;;;24.70;66.90;;;;;;4878514;29;20375;-64
2022/06/26 10:30:02;;;;;;;3.50;1.70;;;24.80;66.10;;;;;;4890970;29;20238;-64
2022/06/26 10:32:28;;;;;;;1.97;1.70;;;24.80;67.00;;;;;;4869277;29;20438;-64
2022/06/26 10:34:57;;;;;;;2.27;1.60;;;24.80;69.00;;;;;;4849018;29;20243;-64
2022/06/26 10:37:23;;;;;;;2.10;1.80;;;24.90;66.30;;;;;;4880618;29;20192;-64
2022/06/26 10:39:51;;;;;;;2.17;1.50;;;24.90;65.60;;;;;;4881701;29;20202;-64
2022/06/26 10:45:14;;;;;;;1.90;1.67;;;25.20;66.30;;;;;;4896889;29;20247;-64
2022/06/26 10:47:48;;;;;;;1.97;1.67;;;25.20;65.60;;;;;;4881220;29;20215;-64
2022/06/26 10:50:34;;;;;;;1.90;1.80;;;25.20;64.50;;;;;;4879054;29;20216;-64
2022/06/26 10:53:17;;;;;;;2.07;1.80;;;25.20;66.80;;;;;;4876286;29;20191;-64
2022/06/26 10:55:52;;;;;;;3.03;1.83;;;25.10;67.30;;;;;;4876680;29;20252;-64
2022/06/26 10:58:20;;;;;;;1.63;1.40;;;25.20;65.10;;;;;;4881431;29;20190;-64
2022/06/26 11:00:46;;;;;;;1.80;1.60;;;25.20;64.10;;;;;;4878751;29;20180;-64
2022/06/26 11:03:16;;;;;;;1.60;1.50;;;25.30;66.30;;;;;;4862020;29;20199;-64
2022/06/26 11:06:15;;;;;;;2.37;1.50;;;25.40;68.10;;;;;;4850009;29;20203;-64
2022/06/26 11:08:48;;;;;;;2.30;2.03;;;25.50;64.50;;;;;;4823307;29;20287;-64
2022/06/26 11:11:20;;;;;;;3.33;1.70;;;25.80;62.40;;;;;;4867775;29;20184;-64
2022/06/26 11:14:00;;;;;;;1.70;1.47;;;25.90;65.60;;;;;;4898178;29;20195;-64
2022/06/26 11:16:31;;;;;;;1.80;1.70;;;26.00;62.70;;;;;;4864446;29;20202;-64
2022/06/26 11:18:58;;;;;;;2.00;1.57;;;25.90;64.20;;;;;;4861894;29;20203;-64
2022/06/26 11:21:26;;;;;;;2.30;2.10;;;25.80;64.00;;;;;;4878246;29;20224;-64
2022/06/26 11:23:53;;;;;;;2.00;1.80;;;26.20;60.90;;;;;;4896828;29;20266;-64
2022/06/26 11:26:21;;;;;;;1.80;1.60;;;26.60;59.50;;;;;;4892819;29;20330;-64
2022/06/26 11:28:54;;;;;;;2.03;1.80;;;26.80;61.70;;;;;;4908401;29;20192;-64
2022/06/26 11:31:22;;;;;;;1.73;1.57;;;26.70;58.90;;;;;;4879188;29;20231;-64
2022/06/26 11:33:48;;;;;;;1.90;1.80;;;26.60;65.10;;;;;;4880078;29;20191;-64
2022/06/26 11:36:17;;;;;;;3.53;1.83;;;26.70;61.20;;;;;;4857964;29;20260;-63
2022/06/26 11:38:53;;;;;;;1.70;1.50;;;26.90;61.90;;;;;;4864720;29;20207;-64
2022/06/26 11:41:23;;;;;;;1.57;1.37;;;27.10;62.00;;;;;;4896748;29;20196;-64
2022/06/26 11:43:52;;;;;;;1.57;1.47;;;27.10;61.90;;;;;;4880978;29;20252;-64
2022/06/26 11:46:18;;;;;;;3.07;1.80;;;27.20;58.20;;;;;;4876016;29;20184;-64
2022/06/26 11:48:44;;;;;;;2.90;1.73;;;27.20;57.30;;;;;;4865778;29;20214;-63
2022/06/26 11:51:13;;;;;;;2.53;1.47;;;27.30;58.80;;;;;;4850203;29;20283;-64
2022/06/26 11:53:44;;;;;;;1.90;1.60;;;27.50;54.50;;;;;;4897095;29;20214;-64
2022/06/26 11:56:11;;;;;;;2.20;1.60;;;27.60;55.80;;;;;;4897451;29;20191;-64
2022/06/26 11:58:37;;;;;;;1.90;1.70;;;27.80;60.60;;;;;;4877468;29;20204;-64
2022/06/26 12:01:13;;;;;;;1.67;1.57;;;27.80;58.10;;;;;;4865674;29;20204;-64
2022/06/26 12:03:48;;;;;;;2.70;1.70;;;27.80;60.20;;;;;;4861494;29;20307;-64
2022/06/26 12:06:39;;;;;;;5.40;1.63;;;27.80;60.90;;;;;;4880565;29;20211;-64
2022/06/26 12:09:20;;;;;;;1.43;1.33;;;28.70;59.10;;;;;;4900439;29;20270;-64
2022/06/26 12:11:51;;;;;;;2.97;1.53;;;29.10;57.50;;;;;;4860088;29;20189;-64
2022/06/26 12:14:19;;;;;;;1.67;1.43;;;29.70;56.60;;;;;;4876570;29;20198;-64
2022/06/26 12:16:50;;;;;;;1.90;1.60;;;29.80;56.00;;;;;;4883363;29;20214;-64
2022/06/26 12:19:17;;;;;;;1.97;1.20;;;30.50;53.50;;;;;;4882819;29;20192;-64
2022/06/26 12:21:47;;;;;;;2.90;1.40;;;31.60;52.30;;;;;;4881445;29;20287;-64
2022/06/26 12:24:14;;;;;;;1.73;1.40;;;32.50;50.00;;;;;;4874326;29;20215;-65
2022/06/26 12:26:41;;;;;;;2.80;1.47;;;32.10;46.90;;;;;;4883412;29;20239;-64
2022/06/26 12:29:12;;;;;;;3.70;1.40;;;31.50;49.50;;;;;;4879872;29;20209;-64
2022/06/26 12:31:39;;;;;;;1.70;1.60;;;30.70;51.00;;;;;;4883288;29;20187;-64
2022/06/26 12:34:06;;;;;;;1.90;1.70;;;30.80;51.10;;;;;;4868483;29;20200;-64
2022/06/26 12:36:33;;;;;;;2.33;1.60;;;32.00;48.20;;;;;;4889199;29;20196;-64
2022/06/26 12:39:01;;;;;;;1.67;1.30;;;33.20;47.40;;;;;;4864520;29;20199;-64
2022/06/26 12:41:27;;;;;;;1.40;1.30;;;34.20;41.50;;;;;;4875594;29;20200;-64
2022/06/26 12:43:55;;;;;;;2.13;1.53;;;35.10;42.50;;;;;;4883777;29;20212;-64
2022/06/26 12:46:21;;;;;;;1.97;1.40;;;35.90;42.50;;;;;;4883830;29;20188;-64
2022/06/26 12:48:48;;;;;;;2.60;1.37;;;36.60;39.30;;;;;;4865012;29;20196;-65
2022/06/26 12:51:14;;;;;;;1.40;1.30;;;36.80;41.10;;;;;;4864393;29;20199;-64
2022/06/26 12:53:41;;;;;;;2.47;1.27;;;35.80;42.30;;;;;;4860889;29;20200;-65
2022/06/26 12:56:09;;;;;;;1.83;1.40;;;34.60;39.80;;;;;;4865972;29;20195;-64
2022/06/26 12:58:34;;;;;;;1.50;1.37;;;34.60;43.70;;;;;;4874977;29;20226;-65